Time;durP1;ratioP1;P1;durP2;ratioP2;P2;SDS_P1;SDS_P2;PMS_P1;PMS_P2;Temp;Humidity;BMP_temperature;BMP_pressure;BME280_temperature;BME280_humidity;BME280_pressure;Samples;Min_cycle;Max_cycle;Signal;HPM_P1;HPM_P2
2022/02/27 00:00:33;;;;;;;;;8.25;8.00;;;;;8.23;45.37;102268.25;4939577;28;45868;-67
2022/02/27 00:02:59;;;;;;;;;7.75;7.00;;;;;8.20;45.55;102270.03;4924702;28;45322;-67
2022/02/27 00:05:24;;;;;;;;;7.00;7.00;;;;;8.12;45.50;102259.41;4934333;28;45334;-67
2022/02/27 00:07:50;;;;;;;;;8.00;7.25;;;;;8.16;45.69;102264.69;4931250;28;45235;-67
2022/02/27 00:10:15;;;;;;;;;8.75;7.25;;;;;8.11;45.51;102261.16;4934383;28;45342;-67
2022/02/27 00:12:40;;;;;;;;;13.00;7.75;;;;;8.08;45.67;102258.47;4927982;28;46033;-67
2022/02/27 00:15:06;;;;;;;;;7.50;7.00;;;;;8.18;45.74;102254.06;4943770;28;45328;-67
2022/02/27 00:17:31;;;;;;;;;7.75;7.00;;;;;8.18;45.61;102262.03;4926410;28;45244;-67
2022/02/27 00:19:57;;;;;;;;;9.25;6.75;;;;;8.14;45.80;102261.16;4934615;28;45416;-67
2022/02/27 00:22:22;;;;;;;;;6.50;6.50;;;;;8.14;46.05;102262.94;4935679;28;46042;-67
2022/02/27 00:24:48;;;;;;;;;11.75;8.50;;;;;8.14;45.84;102263.81;4923907;28;45922;-67
2022/02/27 00:27:13;;;;;;;;;10.25;8.00;;;;;8.09;46.18;102249.63;4928032;28;45465;-67
2022/02/27 00:29:38;;;;;;;;;8.25;8.25;;;;;8.17;45.63;102260.28;4933533;28;45459;-67
2022/02/27 00:32:04;;;;;;;;;8.75;8.00;;;;;8.23;46.09;102264.72;4936978;28;45292;-67
2022/02/27 00:34:31;;;;;;;;;9.75;8.75;;;;;8.18;46.03;102262.03;4934376;28;45281;-67
2022/02/27 00:36:56;;;;;;;;;7.75;7.75;;;;;8.21;45.89;102261.19;4925687;28;45391;-67
2022/02/27 00:39:21;;;;;;;;;6.25;6.25;;;;;8.26;45.63;102262.06;4934634;28;45246;-67
2022/02/27 00:41:47;;;;;;;;;12.50;8.00;;;;;8.27;45.94;102261.16;4926868;28;45517;-67
2022/02/27 00:44:12;;;;;;;;;9.00;9.00;;;;;8.22;45.95;102246.97;4924360;28;45318;-67
2022/02/27 00:46:37;;;;;;;;;8.75;8.75;;;;;8.16;45.94;102243.41;4927541;28;45307;-67
2022/02/27 00:49:03;;;;;;;;;8.50;6.75;;;;;8.23;45.67;102251.41;4933614;28;45274;-67
2022/02/27 00:51:28;;;;;;;;;8.25;8.25;;;;;8.23;46.06;102249.63;4941069;28;45318;-67
2022/02/27 00:53:54;;;;;;;;;7.00;6.50;;;;;8.21;45.72;102256.75;4932201;28;45293;-67
2022/02/27 00:56:19;;;;;;;;;10.25;9.00;;;;;8.20;45.93;102249.63;4924664;28;45252;-67
2022/02/27 00:58:50;;;;;;;;;8.25;6.50;;;;;8.21;45.90;102256.75;4930863;28;46160;-67
2022/02/27 01:01:19;;;;;;;;;8.25;4.00;;;;;8.23;45.91;102259.41;4927986;28;45439;-67
2022/02/27 01:03:45;;;;;;;;;7.50;7.50;;;;;8.29;45.50;102278.03;4933159;28;45613;-67
2022/02/27 01:06:10;;;;;;;;;9.00;7.75;;;;;8.27;45.78;102269.16;4939967;28;45349;-67
2022/02/27 01:08:35;;;;;;;;;6.75;6.50;;;;;8.25;45.52;102269.19;4922767;28;45338;-67
2022/02/27 01:11:01;;;;;;;;;7.75;6.75;;;;;8.28;45.73;102265.63;4936522;28;47599;-67
2022/02/27 01:13:26;;;;;;;;;5.75;5.75;;;;;8.23;45.33;102259.41;4922473;28;45397;-67
2022/02/27 01:15:52;;;;;;;;;9.50;8.25;;;;;8.24;45.53;102259.41;4936456;28;45400;-66
2022/02/27 01:18:17;;;;;;;;;6.00;6.00;;;;;8.28;45.72;102263.84;4933190;28;45326;-67
2022/02/27 01:20:42;;;;;;;;;6.25;6.25;;;;;8.04;45.77;102210.63;4939530;28;46477;-67
2022/02/27 01:23:08;;;;;;;;;6.00;4.00;;;;;8.32;45.77;102259.44;4932766;28;45413;-67
2022/02/27 01:25:33;;;;;;;;;6.25;6.00;;;;;8.31;45.73;102257.66;4934968;28;45402;-67
2022/02/27 01:27:59;;;;;;;;;6.75;5.25;;;;;8.32;45.95;102254.09;4933165;28;45574;-67
2022/02/27 01:30:24;;;;;;;;;8.75;7.00;;;;;8.20;45.72;102231.00;4939504;28;46969;-67
2022/02/27 01:32:50;;;;;;;;;8.00;3.75;;;;;8.22;45.60;102234.59;4942695;28;45387;-67
2022/02/27 01:35:15;;;;;;;;;8.25;3.50;;;;;8.28;45.73;102247.88;4941899;28;45195;-67
2022/02/27 01:37:40;;;;;;;;;9.00;8.00;;;;;8.23;45.52;102243.44;4942740;28;45214;-67
2022/02/27 01:40:07;;;;;;;;;7.25;7.25;;;;;8.21;45.64;102234.56;4942404;28;45396;-67
2022/02/27 01:42:32;;;;;;;;;7.00;7.00;;;;;8.21;45.53;102239.91;4933173;28;45622;-67
2022/02/27 01:44:57;;;;;;;;;8.00;6.00;;;;;8.19;45.62;102241.69;4927786;28;45315;-67
2022/02/27 01:47:23;;;;;;;;;5.75;5.25;;;;;8.16;45.40;102235.44;4932979;28;45297;-67
2022/02/27 01:49:48;;;;;;;;;7.00;5.50;;;;;8.08;45.72;102234.53;4927290;28;45198;-67
2022/02/27 01:52:15;;;;;;;;;3.25;2.75;;;;;8.02;45.71;102226.56;4942054;28;45338;-67
2022/02/27 01:54:41;;;;;;;;;8.00;6.75;;;;;8.01;45.56;102222.13;4927418;28;45467;-67
2022/02/27 01:57:09;;;;;;;;;5.50;5.50;;;;;8.10;45.97;102234.53;4942497;28;45387;-67
2022/02/27 01:59:37;;;;;;;;;9.50;6.25;;;;;8.15;46.02;102246.06;4929136;28;45464;-67
2022/02/27 02:02:04;;;;;;;;;7.75;6.00;;;;;8.16;45.51;102239.88;4934230;28;45247;-67
2022/02/27 02:04:29;;;;;;;;;4.00;4.00;;;;;8.09;45.55;102228.34;4936489;28;45247;-67
2022/02/27 02:06:55;;;;;;;;;6.25;4.00;;;;;8.02;45.05;102223.91;4938784;28;45681;-67
2022/02/27 02:09:20;;;;;;;;;8.00;7.00;;;;;8.05;45.32;102233.66;4929219;28;45310;-67
2022/02/27 02:11:45;;;;;;;;;3.00;3.00;;;;;7.98;45.37;102217.72;4933695;28;45387;-67
2022/02/27 02:14:11;;;;;;;;;8.50;5.50;;;;;8.00;45.37;102228.31;4935604;28;45309;-67
2022/02/27 02:16:44;;;;;;;;;9.25;8.00;;;;;8.00;45.70;102227.44;4925315;28;45463;-67
2022/02/27 02:19:10;;;;;;;;;6.00;5.00;;;;;8.02;45.87;102234.53;4925143;28;46325;-67
2022/02/27 02:21:41;;;;;;;;;4.25;4.25;;;;;8.06;45.54;102225.69;4928876;28;45440;-67
2022/02/27 02:24:07;;;;;;;;;6.00;6.00;;;;;8.04;45.79;102226.56;4938220;28;45333;-67
2022/02/27 02:26:35;;;;;;;;;7.25;6.25;;;;;7.99;45.81;102210.59;4929083;28;45328;-67
2022/02/27 02:29:00;;;;;;;;;8.00;7.00;;;;;7.93;45.35;102215.91;4933167;28;47258;-67
2022/02/27 02:31:25;;;;;;;;;4.00;4.00;;;;;7.91;45.38;102209.69;4933307;28;45305;-67
2022/02/27 02:33:51;;;;;;;;;6.00;6.00;;;;;7.71;45.26;102191.03;4923462;28;45479;-67
2022/02/27 02:36:16;;;;;;;;;7.25;7.00;;;;;7.78;45.75;102208.78;4948360;28;45268;-67
2022/02/27 02:38:42;;;;;;;;;6.75;6.75;;;;;7.74;45.63;102202.56;4928791;28;45385;-67
2022/02/27 02:41:07;;;;;;;;;4.50;4.00;;;;;7.79;46.10;102205.25;4931039;28;45455;-67
2022/02/27 02:43:32;;;;;;;;;5.00;3.75;;;;;7.82;46.24;102202.59;4935249;28;45329;-67
2022/02/27 02:45:58;;;;;;;;;8.00;7.50;;;;;7.82;45.47;102205.25;4933306;28;45389;-67
2022/02/27 02:48:23;;;;;;;;;4.00;4.00;;;;;7.84;45.88;102203.47;4922670;28;47247;-67
2022/02/27 02:50:49;;;;;;;;;7.00;6.50;;;;;7.71;45.66;102188.38;4934403;28;45392;-67
2022/02/27 02:53:14;;;;;;;;;5.50;1.00;;;;;7.76;45.79;102206.09;4931376;28;45523;-67
2022/02/27 02:55:39;;;;;;;;;7.50;6.75;;;;;7.66;45.47;102196.34;4948206;28;45417;-67
2022/02/27 02:58:05;;;;;;;;;4.50;4.50;;;;;7.73;45.77;102210.53;4942349;28;46126;-67
2022/02/27 03:00:30;;;;;;;;;3.75;3.75;;;;;7.75;46.08;102204.34;4922407;28;45326;-67
2022/02/27 03:02:56;;;;;;;;;6.75;5.00;;;;;7.79;45.78;102207.91;4934387;28;45402;-67
2022/02/27 03:05:21;;;;;;;;;6.00;6.00;;;;;7.82;46.02;102207.00;4922212;28;45311;-67
2022/02/27 03:07:46;;;;;;;;;8.00;4.75;;;;;7.83;46.02;102212.31;4934828;28;45355;-67
2022/02/27 03:10:12;;;;;;;;;6.00;6.00;;;;;7.78;46.20;102195.47;4931823;28;45354;-67
2022/02/27 03:12:39;;;;;;;;;6.75;6.00;;;;;7.87;46.18;102208.81;4927538;28;45354;-67
2022/02/27 03:15:06;;;;;;;;;7.75;4.00;;;;;7.82;45.45;102199.03;4930252;28;45258;-67
2022/02/27 03:17:32;;;;;;;;;6.00;4.00;;;;;7.86;45.57;102204.38;4933569;28;46463;-67
2022/02/27 03:19:57;;;;;;;;;6.50;5.50;;;;;7.85;45.78;102196.38;4922256;28;45354;-67
2022/02/27 03:22:23;;;;;;;;;6.00;6.00;;;;;7.88;45.79;102204.38;4933602;28;45353;-67
2022/02/27 03:24:48;;;;;;;;;10.50;6.00;;;;;7.87;45.62;102194.59;4931084;28;45375;-67
2022/02/27 03:27:14;;;;;;;;;6.50;4.00;;;;;7.79;45.65;102194.59;4938284;28;45417;-67
2022/02/27 03:29:39;;;;;;;;;4.75;3.00;;;;;7.73;45.41;102182.16;4933681;28;45460;-67
2022/02/27 03:32:06;;;;;;;;;4.00;4.00;;;;;7.77;45.74;102191.94;4938171;28;45364;-67
2022/02/27 03:34:31;;;;;;;;;8.00;4.00;;;;;7.73;45.78;102186.59;4925253;28;45334;-67
2022/02/27 03:36:56;;;;;;;;;8.25;5.75;;;;;7.66;45.88;102190.16;4941500;28;45265;-67
2022/02/27 03:39:22;;;;;;;;;6.00;6.00;;;;;7.55;45.91;102185.69;4934786;28;45400;-67
2022/02/27 03:41:47;;;;;;;;;3.00;3.00;;;;;7.52;45.68;102185.66;4938173;28;45231;-67
2022/02/27 03:44:12;;;;;;;;;4.00;3.50;;;;;7.56;46.15;102198.06;4935414;28;45222;-67
2022/02/27 03:46:38;;;;;;;;;4.00;4.00;;;;;7.61;45.92;102211.38;4940078;28;46232;-67
2022/02/27 03:49:04;;;;;;;;;5.00;3.00;;;;;7.60;46.01;102202.53;4925275;28;45152;-67
2022/02/27 03:51:35;;;;;;;;;8.25;6.00;;;;;7.55;46.02;102191.00;4942504;28;45417;-67
2022/02/27 03:54:05;;;;;;;;;3.50;3.50;;;;;7.65;45.65;102206.97;4954925;28;45542;-67
2022/02/27 03:56:31;;;;;;;;;6.00;6.00;;;;;7.52;45.85;102200.75;4966943;28;47030;-67
2022/02/27 03:58:56;;;;;;;;;5.50;4.00;;;;;7.56;46.19;102205.16;4944118;28;45352;-67
2022/02/27 04:01:21;;;;;;;;;7.25;4.00;;;;;7.51;45.30;102212.22;4944637;28;45313;-67
2022/02/27 04:03:47;;;;;;;;;3.00;3.00;;;;;7.50;45.87;102216.66;4939568;28;45497;-67
2022/02/27 04:06:12;;;;;;;;;7.00;5.00;;;;;7.40;45.71;102202.47;4937599;28;45787;-67
2022/02/27 04:08:39;;;;;;;;;6.50;4.50;;;;;7.41;45.66;102213.97;4933537;28;45442;-67
2022/02/27 04:11:04;;;;;;;;;3.00;3.00;;;;;7.44;45.85;102218.41;4927870;28;45405;-67
2022/02/27 04:13:30;;;;;;;;;6.50;3.75;;;;;7.43;45.95;102220.16;4924874;28;45386;-67
2022/02/27 04:15:55;;;;;;;;;5.75;3.75;;;;;7.41;46.26;102209.53;4927371;28;45329;-67
2022/02/27 04:18:20;;;;;;;;;8.50;5.00;;;;;7.40;45.62;102206.84;4933619;28;45375;-67
2022/02/27 04:20:46;;;;;;;;;5.00;3.00;;;;;7.28;45.76;102188.22;4937147;28;45444;-67
2022/02/27 04:23:11;;;;;;;;;5.00;5.00;;;;;7.23;46.14;102207.69;4934077;28;45223;-67
2022/02/27 04:25:36;;;;;;;;;5.25;3.25;;;;;7.09;46.29;102181.94;4924319;28;46525;-67
2022/02/27 04:28:02;;;;;;;;;5.00;3.00;;;;;7.16;45.64;102202.34;4925357;28;45394;-67
2022/02/27 04:30:27;;;;;;;;;3.00;2.00;;;;;7.18;46.06;102206.78;4926189;28;45472;-67
2022/02/27 04:32:53;;;;;;;;;6.00;5.75;;;;;7.20;45.69;102210.34;4934187;28;45368;-67
2022/02/27 04:35:18;;;;;;;;;3.50;2.25;;;;;7.19;46.08;102199.69;4940128;28;46273;-67
2022/02/27 04:37:43;;;;;;;;;3.50;3.50;;;;;7.28;46.64;102212.13;4933897;28;45436;-67
2022/02/27 04:40:10;;;;;;;;;2.50;2.00;;;;;7.18;46.17;102184.63;4940296;28;45297;-67
2022/02/27 04:42:35;;;;;;;;;6.50;3.00;;;;;7.29;46.46;102208.59;4931878;28;45456;-67
2022/02/27 04:45:01;;;;;;;;;6.25;4.25;;;;;7.28;45.72;102213.00;4936889;28;45773;-67
2022/02/27 04:47:26;;;;;;;;;4.00;4.00;;;;;7.27;45.79;102203.28;4933991;28;45397;-67
2022/02/27 04:49:52;;;;;;;;;4.75;4.25;;;;;7.28;46.28;102199.72;4943315;28;45374;-67
2022/02/27 04:52:18;;;;;;;;;4.75;4.75;;;;;7.26;46.39;102187.34;4943003;28;45321;-67
2022/02/27 04:54:44;;;;;;;;;3.00;3.00;;;;;7.32;46.38;102200.66;4931606;28;46034;-67
2022/02/27 04:57:10;;;;;;;;;6.00;3.75;;;;;7.30;46.21;102199.75;4954117;28;45472;-67
2022/02/27 04:59:35;;;;;;;;;5.50;3.25;;;;;7.22;45.92;102189.09;4928758;28;45321;-67
2022/02/27 05:02:00;;;;;;;;;6.50;3.75;;;;;7.20;46.06;102194.41;4932420;28;45314;-67
2022/02/27 05:04:26;;;;;;;;;5.25;2.75;;;;;7.09;45.72;102181.94;4941101;28;46280;-67
2022/02/27 05:06:51;;;;;;;;;4.75;4.75;;;;;7.01;45.67;102184.56;4931460;28;45296;-67
2022/02/27 05:09:19;;;;;;;;;7.00;6.00;;;;;6.83;46.01;102174.72;4928491;28;45290;-67
2022/02/27 05:11:48;;;;;;;;;4.25;4.25;;;;;6.92;46.40;102189.81;4932558;28;45235;-67
2022/02/27 05:14:13;;;;;;;;;4.25;4.25;;;;;6.88;46.13;102178.28;4930113;28;45399;-67
2022/02/27 05:16:41;;;;;;;;;4.25;3.00;;;;;6.85;46.82;102176.50;4933934;28;45347;-67
2022/02/27 05:19:07;;;;;;;;;4.25;4.25;;;;;6.91;46.50;102186.25;4936585;28;45235;-67
2022/02/27 05:21:33;;;;;;;;;5.50;3.50;;;;;6.95;46.28;102197.78;4928029;28;45493;-67
2022/02/27 05:23:58;;;;;;;;;6.00;4.25;;;;;6.95;46.14;102197.78;4929785;28;46181;-67
2022/02/27 05:26:23;;;;;;;;;4.25;4.25;;;;;6.87;46.24;102176.53;4933281;28;45320;-67
2022/02/27 05:28:49;;;;;;;;;10.25;5.75;;;;;6.88;46.08;102188.88;4937826;28;45400;-67
2022/02/27 05:31:14;;;;;;;;;7.75;7.25;;;;;6.82;46.31;102196.84;4932806;28;45231;-67
2022/02/27 05:33:40;;;;;;;;;7.00;4.50;;;;;6.82;47.12;102178.25;4923139;28;45333;-67
2022/02/27 05:36:06;;;;;;;;;6.00;6.00;;;;;6.86;46.37;102177.38;4933448;28;45381;-66
2022/02/27 05:38:31;;;;;;;;;6.00;5.00;;;;;6.77;46.55;102166.72;4936180;28;45322;-67
2022/02/27 05:40:57;;;;;;;;;5.25;5.25;;;;;6.76;47.15;102155.19;4933662;28;45250;-67
2022/02/27 05:43:22;;;;;;;;;11.00;9.25;;;;;6.86;46.93;102180.03;4929657;28;46157;-67
2022/02/27 05:45:48;;;;;;;;;5.00;5.00;;;;;6.86;46.92;102177.38;4932227;28;45495;-67
2022/02/27 05:48:13;;;;;;;;;11.50;9.00;;;;;6.83;46.62;102177.38;4927412;28;45516;-67
2022/02/27 05:50:38;;;;;;;;;8.25;7.75;;;;;6.86;46.70;102175.59;4941264;28;45298;-67
2022/02/27 05:53:04;;;;;;;;;8.00;6.25;;;;;6.85;46.79;102165.00;4938538;28;45338;-67
2022/02/27 05:55:29;;;;;;;;;6.25;5.00;;;;;6.91;46.48;102188.03;4928926;28;45540;-67
2022/02/27 05:57:54;;;;;;;;;4.25;4.25;;;;;6.87;46.81;102173.88;4931134;28;45290;-67
2022/02/27 06:00:20;;;;;;;;;7.50;3.75;;;;;6.89;46.50;102179.19;4953851;28;45368;-67
2022/02/27 06:02:45;;;;;;;;;11.25;5.50;;;;;6.82;46.77;102191.53;4929341;28;45321;-67
2022/02/27 06:05:11;;;;;;;;;5.25;3.50;;;;;6.78;46.55;102182.66;4932949;28;45943;-67
2022/02/27 06:07:36;;;;;;;;;7.50;7.00;;;;;6.80;46.53;102182.66;4935534;28;45443;-67
2022/02/27 06:10:03;;;;;;;;;4.75;4.75;;;;;6.76;46.63;102187.06;4931193;28;45411;-67
2022/02/27 06:12:29;;;;;;;;;4.25;3.75;;;;;6.71;46.56;102174.63;4940065;28;47623;-67
2022/02/27 06:14:54;;;;;;;;;7.75;3.25;;;;;6.61;46.61;102179.00;4939755;28;45338;-67
2022/02/27 06:17:19;;;;;;;;;8.00;5.50;;;;;6.53;47.02;102186.00;4943739;28;45448;-67
2022/02/27 06:19:45;;;;;;;;;8.00;4.75;;;;;6.36;46.30;102169.97;4922931;28;45441;-67
2022/02/27 06:22:10;;;;;;;;;2.75;2.75;;;;;6.40;47.08;102175.31;4933315;28;46184;-67
2022/02/27 06:24:35;;;;;;;;;5.25;4.75;;;;;6.36;46.73;102180.56;4941842;28;45576;-67
2022/02/27 06:27:01;;;;;;;;;2.50;2.50;;;;;6.41;47.31;102189.44;4929596;28;45392;-67
2022/02/27 06:29:27;;;;;;;;;2.50;2.25;;;;;6.31;46.33;102159.31;4932831;28;45412;-67
2022/02/27 06:31:52;;;;;;;;;5.25;4.00;;;;;6.43;47.27;102182.38;4937901;28;46128;-67
2022/02/27 06:34:17;;;;;;;;;5.50;3.25;;;;;6.47;47.05;102192.16;4936693;28;45326;-67
2022/02/27 06:36:43;;;;;;;;;3.00;3.00;;;;;6.47;46.47;102182.44;4927869;28;45951;-67
2022/02/27 06:39:08;;;;;;;;;5.50;3.50;;;;;6.48;46.91;102188.63;4936252;28;45408;-67
2022/02/27 06:41:33;;;;;;;;;6.50;5.00;;;;;6.45;46.81;102193.94;4939128;28;45343;-67
2022/02/27 06:43:59;;;;;;;;;2.75;2.75;;;;;6.46;46.59;102187.72;4931525;28;45425;-67
2022/02/27 06:46:24;;;;;;;;;5.25;3.00;;;;;6.51;47.04;102180.69;4928845;28;45424;-67
2022/02/27 06:48:49;;;;;;;;;7.00;6.00;;;;;6.48;47.27;102183.31;4937743;28;45294;-67
2022/02/27 06:51:15;;;;;;;;;3.50;3.50;;;;;6.43;46.79;102175.34;4935330;28;45412;-67
2022/02/27 06:53:40;;;;;;;;;3.75;3.00;;;;;6.48;46.74;102181.56;4929409;28;45409;-67
2022/02/27 06:56:06;;;;;;;;;4.50;3.00;;;;;6.52;46.44;102182.47;4937989;28;45529;-66
2022/02/27 06:58:31;;;;;;;;;5.00;4.25;;;;;6.42;46.20;102165.59;4929042;28;46191;-67
2022/02/27 07:00:57;;;;;;;;;8.00;5.00;;;;;6.50;47.02;102178.94;4927396;28;46886;-67
2022/02/27 07:03:22;;;;;;;;;2.00;2.00;;;;;6.53;46.65;102183.34;4936981;28;45434;-67
2022/02/27 07:05:48;;;;;;;;;4.00;3.00;;;;;6.52;46.53;102181.59;4934412;28;45590;-67
2022/02/27 07:08:13;;;;;;;;;3.00;3.00;;;;;6.44;47.12;102181.53;4928595;28;45491;-66
2022/02/27 07:10:39;;;;;;;;;2.75;2.75;;;;;6.50;46.35;102189.53;4928464;28;46256;-66
2022/02/27 07:13:04;;;;;;;;;3.00;3.00;;;;;6.49;46.29;102185.97;4928135;28;45296;-66
2022/02/27 07:15:30;;;;;;;;;4.50;4.50;;;;;6.44;46.41;102176.22;4941342;28;45473;-67
2022/02/27 07:17:56;;;;;;;;;4.25;4.25;;;;;6.46;46.63;102177.13;4928310;28;45567;-67
2022/02/27 07:20:22;;;;;;;;;4.25;4.25;;;;;6.51;46.10;102185.13;4937727;28;47349;-67
2022/02/27 07:22:48;;;;;;;;;4.25;3.00;;;;;6.41;46.94;102176.19;4952263;28;45380;-67
2022/02/27 07:25:13;;;;;;;;;2.75;2.75;;;;;6.34;46.55;102177.91;4928402;28;45474;-67
2022/02/27 07:27:39;;;;;;;;;3.50;3.25;;;;;6.41;46.41;102186.81;4927252;28;45283;-66
2022/02/27 07:30:05;;;;;;;;;4.00;3.00;;;;;6.41;46.62;102169.13;4936146;28;46113;-66
2022/02/27 07:32:31;;;;;;;;;3.50;2.75;;;;;6.42;46.44;102181.50;4928042;28;45234;-66
2022/02/27 07:34:58;;;;;;;;;5.50;4.25;;;;;6.37;46.03;102163.78;4927257;28;45670;-66
2022/02/27 07:37:23;;;;;;;;;4.50;3.00;;;;;6.35;46.50;102178.78;4948978;28;45489;-66
2022/02/27 07:39:48;;;;;;;;;5.00;3.00;;;;;6.43;46.35;102185.03;4923561;28;45996;-66
2022/02/27 07:42:14;;;;;;;;;3.50;3.50;;;;;6.43;46.48;102174.44;4933719;28;45409;-66
2022/02/27 07:44:39;;;;;;;;;4.75;2.00;;;;;6.53;46.79;102184.22;4934480;28;45415;-66
2022/02/27 07:47:05;;;;;;;;;2.00;2.00;;;;;6.52;46.59;102170.97;4936596;28;45980;-66
2022/02/27 07:49:30;;;;;;;;;3.00;3.00;;;;;6.53;46.28;102170.97;4933636;28;45336;-66
2022/02/27 07:51:56;;;;;;;;;2.50;1.75;;;;;6.53;46.92;102175.41;4936839;28;45409;-67
2022/02/27 07:54:21;;;;;;;;;2.25;2.25;;;;;6.59;46.61;102181.63;4935935;28;45518;-66
2022/02/27 07:56:47;;;;;;;;;5.25;3.00;;;;;6.64;46.32;102192.28;4953582;28;45395;-66
2022/02/27 07:59:13;;;;;;;;;5.00;3.00;;;;;6.58;46.57;102193.16;4940377;28;46983;-66
2022/02/27 08:01:38;;;;;;;;;6.00;4.25;;;;;6.61;46.27;102202.88;4940801;28;45270;-66
2022/02/27 08:04:04;;;;;;;;;5.50;3.00;;;;;6.61;45.96;102202.88;4932939;28;45521;-66
2022/02/27 08:06:30;;;;;;;;;2.75;2.00;;;;;6.53;45.91;102184.22;4935610;28;45289;-66
2022/02/27 08:08:57;;;;;;;;;5.00;5.00;;;;;6.55;45.44;102189.56;4932829;28;45552;-66
2022/02/27 08:11:22;;;;;;;;;6.00;3.25;;;;;6.54;45.90;102193.97;4928067;28;45681;-66
2022/02/27 08:13:47;;;;;;;;;6.00;3.00;;;;;6.49;45.86;102190.41;4932892;28;45227;-66
2022/02/27 08:16:13;;;;;;;;;3.00;3.00;;;;;6.51;45.48;102187.75;4924200;28;45267;-66
2022/02/27 08:18:38;;;;;;;;;3.00;3.00;;;;;6.54;46.10;102212.56;4943722;28;46217;-66
2022/02/27 08:21:04;;;;;;;;;5.50;4.00;;;;;6.56;45.70;102197.53;4927170;28;45231;-66
2022/02/27 08:23:29;;;;;;;;;5.50;5.00;;;;;6.50;45.76;102184.22;4935040;28;45288;-66
2022/02/27 08:25:55;;;;;;;;;2.75;2.00;;;;;6.58;46.01;102206.41;4932410;28;45422;-66
2022/02/27 08:28:22;;;;;;;;;5.00;5.00;;;;;6.63;45.83;102209.06;4947182;28;45453;-66
2022/02/27 08:30:47;;;;;;;;;4.75;4.75;;;;;6.58;46.09;102198.44;4942841;28;45496;-66
2022/02/27 08:33:13;;;;;;;;;5.00;3.00;;;;;6.64;46.17;102203.78;4941196;28;45419;-66
2022/02/27 08:35:38;;;;;;;;;7.50;5.00;;;;;6.63;45.80;102201.13;4943117;28;45543;-66
2022/02/27 08:38:04;;;;;;;;;2.00;2.00;;;;;6.68;45.56;102218.88;4936178;28;45453;-66
2022/02/27 08:40:30;;;;;;;;;7.50;3.00;;;;;6.67;46.44;102208.22;4928675;28;45441;-66
2022/02/27 08:42:59;;;;;;;;;2.75;2.00;;;;;6.73;45.61;102212.69;4928396;28;45360;-66
2022/02/27 08:45:24;;;;;;;;;4.75;4.25;;;;;6.75;45.78;102210.94;4935171;28;45290;-66
2022/02/27 08:47:51;;;;;;;;;5.00;3.00;;;;;6.77;45.66;102214.50;4925848;28;45438;-66
2022/02/27 08:50:16;;;;;;;;;6.25;3.00;;;;;6.73;45.47;102223.31;4938024;28;45530;-66
2022/02/27 08:52:42;;;;;;;;;2.25;2.00;;;;;6.67;45.41;102213.53;4932572;28;45400;-67
2022/02/27 08:55:09;;;;;;;;;6.50;4.75;;;;;6.63;45.42;102215.28;4938184;28;45444;-67
2022/02/27 08:57:34;;;;;;;;;6.00;4.50;;;;;6.55;45.37;102195.78;4941996;28;45582;-66
2022/02/27 09:00:00;;;;;;;;;3.75;3.25;;;;;6.64;45.24;102214.41;4928799;28;45545;-66
2022/02/27 09:02:27;;;;;;;;;3.00;3.00;;;;;6.64;46.16;102216.16;4932245;28;45654;-66
2022/02/27 09:04:53;;;;;;;;;4.25;4.25;;;;;6.61;45.69;102208.19;4926149;28;45373;-66
2022/02/27 09:07:18;;;;;;;;;5.25;3.00;;;;;6.72;45.55;102216.25;4931870;28;45406;-66
2022/02/27 09:09:44;;;;;;;;;6.00;3.00;;;;;6.76;45.07;102220.69;4935164;28;45479;-66
2022/02/27 09:12:10;;;;;;;;;4.00;4.00;;;;;6.85;45.86;102228.72;4929144;28;45747;-66
2022/02/27 09:14:37;;;;;;;;;4.00;3.00;;;;;6.82;45.06;102226.91;4928776;28;45433;-66
2022/02/27 09:17:02;;;;;;;;;5.00;2.75;;;;;6.88;45.86;102234.03;4931146;28;45509;-66
2022/02/27 09:19:28;;;;;;;;;5.50;5.50;;;;;6.96;45.78;102237.63;4926504;28;46822;-66
2022/02/27 09:21:53;;;;;;;;;5.75;5.75;;;;;6.96;44.70;102228.78;4944946;28;45435;-66
2022/02/27 09:24:19;;;;;;;;;3.50;3.00;;;;;7.04;45.06;102225.28;4928638;28;45391;-66
2022/02/27 09:26:45;;;;;;;;;6.50;5.00;;;;;6.91;44.41;102220.78;4933333;28;45420;-66
2022/02/27 09:29:11;;;;;;;;;3.75;3.75;;;;;6.95;44.80;102224.31;4927994;28;45638;-67
2022/02/27 09:31:37;;;;;;;;;3.00;2.00;;;;;6.99;44.92;102229.69;4939081;28;45656;-66
2022/02/27 09:34:03;;;;;;;;;3.00;2.50;;;;;7.02;44.42;102224.38;4926589;28;45483;-66
2022/02/27 09:36:28;;;;;;;;;2.50;2.00;;;;;7.07;44.65;102218.19;4932824;28;45729;-67
2022/02/27 09:38:53;;;;;;;;;2.50;2.50;;;;;7.05;44.75;102213.78;4935573;28;45392;-67
2022/02/27 09:41:19;;;;;;;;;8.00;3.00;;;;;7.01;43.74;102200.47;4932475;28;45320;-66
2022/02/27 09:43:52;;;;;;;;;2.00;2.00;;;;;7.11;44.59;102209.38;4933670;28;45179;-67
2022/02/27 09:46:19;;;;;;;;;2.50;2.00;;;;;7.15;44.69;102212.09;4936541;28;45257;-67
2022/02/27 09:48:46;;;;;;;;;5.00;3.00;;;;;7.27;44.82;102218.31;4933443;28;45240;-67
2022/02/27 09:51:11;;;;;;;;;2.50;2.50;;;;;7.36;44.74;102210.41;4940050;28;45749;-67
2022/02/27 09:53:37;;;;;;;;;3.00;3.00;;;;;7.44;44.93;102208.66;4930125;28;45598;-67
2022/02/27 09:56:02;;;;;;;;;3.00;3.00;;;;;7.51;44.21;102206.91;4936064;28;46253;-66
2022/02/27 09:58:28;;;;;;;;;3.25;3.25;;;;;7.56;44.01;102214.00;4936567;28;45547;-67
2022/02/27 10:00:54;;;;;;;;;3.25;3.00;;;;;7.66;43.83;102222.03;4947847;28;45537;-65
2022/02/27 10:03:28;;;;;;;;;2.00;2.00;;;;;7.65;43.54;102205.22;4924786;28;45627;-66
2022/02/27 10:06:04;;;;;;;;;4.00;3.25;;;;;7.73;43.45;102210.53;4932003;28;46135;-66
2022/02/27 10:08:41;;;;;;;;;2.25;2.25;;;;;7.77;43.82;102202.56;4933202;28;45423;-66
2022/02/27 10:11:09;;;;;;;;;6.50;4.00;;;;;7.83;43.29;102209.66;4934720;28;45441;-67
2022/02/27 10:13:35;;;;;;;;;3.00;3.00;;;;;7.84;43.57;102208.78;4936333;28;45503;-66
2022/02/27 10:16:24;;;;;;;;;5.50;3.00;;;;;7.83;43.30;102209.66;4940520;28;45804;-66
2022/02/27 10:18:55;;;;;;;;;3.75;2.50;;;;;7.87;43.48;102208.81;4939555;28;45411;-66
2022/02/27 10:21:25;;;;;;;;;5.25;3.00;;;;;7.96;43.47;102218.56;4934781;28;45424;-66
2022/02/27 10:24:08;;;;;;;;;3.00;2.75;;;;;8.01;43.15;102210.59;4941022;28;45420;-66
2022/02/27 10:26:36;;;;;;;;;5.00;4.00;;;;;8.05;42.89;102218.59;4940187;28;46043;-66
2022/02/27 10:29:12;;;;;;;;;3.00;3.00;;;;;8.09;42.76;102211.50;4932571;28;45632;-66
2022/02/27 10:31:53;;;;;;;;;3.50;3.50;;;;;8.06;43.14;102204.41;4941647;28;45243;-66
2022/02/27 10:34:20;;;;;;;;;6.00;6.00;;;;;8.18;43.19;102210.63;4941834;28;45536;-66
2022/02/27 10:37:05;;;;;;;;;5.00;3.00;;;;;8.22;43.24;102207.06;4940061;28;46277;-66
2022/02/27 10:39:43;;;;;;;;;5.00;5.00;;;;;8.24;43.26;102216.84;4940033;28;46334;-66
2022/02/27 10:42:28;;;;;;;;;2.50;2.50;;;;;8.32;43.11;102225.72;4941249;28;45243;-66
2022/02/27 10:44:59;;;;;;;;;7.25;5.00;;;;;8.35;42.80;102222.16;4940793;28;45477;-66
2022/02/27 10:47:28;;;;;;;;;6.00;4.00;;;;;8.37;42.90;102215.09;4940436;28;45345;-66
2022/02/27 10:49:56;;;;;;;;;7.25;6.00;;;;;8.42;42.84;102223.97;4940804;28;45164;-66
2022/02/27 10:52:32;;;;;;;;;7.00;5.75;;;;;8.46;42.47;102220.44;4940868;28;45576;-66
2022/02/27 10:55:08;;;;;;;;;4.50;4.50;;;;;8.47;42.96;102208.91;4940758;28;45326;-66
2022/02/27 10:57:39;;;;;;;;;4.50;4.50;;;;;8.50;42.83;102208.91;4934093;28;45468;-66
2022/02/27 11:00:12;;;;;;;;;5.00;4.50;;;;;8.56;42.74;102216.00;4928754;28;45708;-66
2022/02/27 11:02:38;;;;;;;;;7.00;4.75;;;;;8.58;42.83;102214.22;4933630;28;45351;-66
2022/02/27 11:05:06;;;;;;;;;6.25;4.00;;;;;8.63;42.85;102203.56;4931620;28;45553;-66
2022/02/27 11:07:34;;;;;;;;;6.25;4.00;;;;;8.68;42.33;102207.97;4937957;28;45374;-66
2022/02/27 11:10:00;;;;;;;;;7.00;3.50;;;;;8.68;42.47;102205.31;4941734;28;45350;-66
2022/02/27 11:12:26;;;;;;;;;5.50;4.00;;;;;8.72;42.95;102214.22;4932926;28;45319;-66
2022/02/27 11:14:53;;;;;;;;;7.00;4.75;;;;;8.75;42.91;102210.66;4926109;28;45389;-66
2022/02/27 11:17:19;;;;;;;;;4.00;4.00;;;;;8.77;42.53;102209.78;4926065;28;45227;-66
2022/02/27 11:19:44;;;;;;;;;7.50;7.50;;;;;8.85;42.31;102209.75;4924075;28;45419;-66
2022/02/27 11:22:10;;;;;;;;;8.00;3.25;;;;;8.90;42.71;102202.63;4934673;28;45274;-66
2022/02/27 11:24:36;;;;;;;;;4.25;4.00;;;;;8.97;42.43;102214.16;4948147;28;45238;-66
2022/02/27 11:27:04;;;;;;;;;9.00;3.00;;;;;8.97;42.69;102204.41;4929211;28;46067;-66
2022/02/27 11:29:29;;;;;;;;;6.75;4.75;;;;;9.03;42.32;102208.81;4924397;28;45546;-66